Tropical Cyclones
[Index]
Main Index Home Page Stock Weather Photos Extreme Storms Discussion Storm News and Storm Chasing Reports Tropical Cyclones / Hurricanes / Typhoons Weather Data and Links Wild Fires / Bushfires Weather Observation Techniques Weather Picture Catalogue Tornado Pictures and Reports Stock Video Footage and DVDs for sale
Season 1966-1967 Tropical Cyclone 196717 Track Map
Season 1966-1967 Summaries: [BoM-AU] [JTWC-AU] [JTWC-SIO] [JTWC-SPAC] [JTWC-SH]
<<- Previous TC | JTWC 1966-1967 Season | Next TC ->>

click for intensity scale information  Lat/long Grid: Show Hide

 Date Labels: Show Hide

Joint Typhoon Warning Centre Cyclone Data

Name: 196717
Number: 632 / 6717

27 Jan 1967 00:00 UTC to 06 Feb 1967 00:00 UTC

    date/time    lat    long     hPa   cat  kts
1967-01-27 00   18.0   173.1                              
1967-01-27 06   18.0   172.8                              
1967-01-27 12   18.0   172.5                              
1967-01-27 18   17.9   172.2                              
1967-01-28 00   17.8   172.0                              
1967-01-28 06   17.7   171.7                              
1967-01-28 12   17.5   171.3                              
1967-01-28 18   17.4   171.1                              
1967-01-29 00   17.3   171.0                              
1967-01-29 06   17.5   170.5                              
1967-01-29 12   17.7   170.3                              
1967-01-29 18   17.8   170.6                              
1967-01-30 00   17.8   171.0                              
1967-01-30 06   17.6   171.3                              
1967-01-30 12   17.3   171.7                              
1967-01-30 18   16.7   171.8                              
1967-01-31 00   16.3   171.5                              
1967-01-31 06   16.2   171.1                              
1967-01-31 12   16.2   170.6                              
1967-01-31 18   16.1   170.2                              
1967-02-01 00   16.0   169.6                              
1967-02-01 06   16.0   168.6                              
1967-02-01 12   16.0   167.5                              
1967-02-01 18   15.8   166.4                              
1967-02-02 00   15.8   165.3                              
1967-02-02 06   16.3   164.8                              
1967-02-02 12   17.0   165.0                              
1967-02-02 18   17.5   165.3                              
1967-02-03 00   18.0   165.7                              
1967-02-03 06   18.1   166.4                              
1967-02-03 12   18.0   167.1                              
1967-02-03 18   17.6   167.3                              
1967-02-04 00   17.2   167.8                              
1967-02-04 06   17.5   168.9                              
1967-02-04 12   18.2   170.0                              
1967-02-04 18   19.2   171.1                              
1967-02-05 00   20.2   172.2                              
1967-02-05 06   21.2   173.5                              
1967-02-05 12   22.3   174.8                              
1967-02-05 18   23.5   175.2                              
1967-02-06 00   24.8   174.8                              
Winds are 1-min average.

Tropical cyclone tracks developed by Michael Bath using data from the Joint Typhoon Warning Centre Best Tracks and Google Maps.


[Australian Severe Weather index] [Copyright Notice] [Email Contacts] [Search This Site] [Privacy Policy]
Document: tropical_cyclone_196717.htm Updated: 18 September 2016